sensor_id;sensor_type;location;lat;lon;timestamp;P1;durP1;ratioP1;P2;durP2;ratioP2
40807;SDS011;26523;52.504;13.498;2023-01-09T00:01:10;11.63;;;4.65;;
40807;SDS011;26523;52.504;13.498;2023-01-09T00:03:38;10.95;;;4.13;;
40807;SDS011;26523;52.504;13.498;2023-01-09T00:06:04;11.93;;;4.55;;
40807;SDS011;26523;52.504;13.498;2023-01-09T00:08:30;11.48;;;5.18;;
40807;SDS011;26523;52.504;13.498;2023-01-09T00:10:55;12.80;;;4.85;;
40807;SDS011;26523;52.504;13.498;2023-01-09T00:13:21;10.45;;;4.95;;
40807;SDS011;26523;52.504;13.498;2023-01-09T00:15:47;11.68;;;5.93;;
40807;SDS011;26523;52.504;13.498;2023-01-09T00:18:13;12.45;;;4.18;;
40807;SDS011;26523;52.504;13.498;2023-01-09T00:20:38;13.70;;;5.03;;
40807;SDS011;26523;52.504;13.498;2023-01-09T00:23:04;13.05;;;5.05;;
40807;SDS011;26523;52.504;13.498;2023-01-09T00:25:30;10.27;;;5.55;;
40807;SDS011;26523;52.504;13.498;2023-01-09T00:27:56;10.40;;;5.22;;
40807;SDS011;26523;52.504;13.498;2023-01-09T00:30:21;12.55;;;5.90;;
40807;SDS011;26523;52.504;13.498;2023-01-09T00:32:47;9.10;;;4.45;;
40807;SDS011;26523;52.504;13.498;2023-01-09T00:35:14;12.88;;;4.60;;
40807;SDS011;26523;52.504;13.498;2023-01-09T00:37:41;11.27;;;5.25;;
40807;SDS011;26523;52.504;13.498;2023-01-09T00:40:07;13.25;;;5.25;;
40807;SDS011;26523;52.504;13.498;2023-01-09T00:42:33;9.73;;;5.05;;
40807;SDS011;26523;52.504;13.498;2023-01-09T00:45:01;13.85;;;6.55;;
40807;SDS011;26523;52.504;13.498;2023-01-09T00:47:32;12.98;;;5.50;;
40807;SDS011;26523;52.504;13.498;2023-01-09T00:50:08;16.65;;;5.13;;
40807;SDS011;26523;52.504;13.498;2023-01-09T00:52:40;17.27;;;7.15;;
40807;SDS011;26523;52.504;13.498;2023-01-09T00:55:06;10.18;;;4.32;;
40807;SDS011;26523;52.504;13.498;2023-01-09T00:57:33;13.07;;;5.30;;
40807;SDS011;26523;52.504;13.498;2023-01-09T00:59:59;10.63;;;4.75;;
40807;SDS011;26523;52.504;13.498;2023-01-09T01:02:25;11.85;;;5.90;;
40807;SDS011;26523;52.504;13.498;2023-01-09T01:04:50;16.52;;;5.60;;
40807;SDS011;26523;52.504;13.498;2023-01-09T01:07:35;13.80;;;5.53;;
40807;SDS011;26523;52.504;13.498;2023-01-09T01:10:04;15.25;;;6.22;;
40807;SDS011;26523;52.504;13.498;2023-01-09T01:12:31;12.70;;;5.30;;
40807;SDS011;26523;52.504;13.498;2023-01-09T01:14:57;13.70;;;5.45;;
40807;SDS011;26523;52.504;13.498;2023-01-09T01:17:22;12.95;;;5.63;;
40807;SDS011;26523;52.504;13.498;2023-01-09T01:19:48;13.48;;;5.63;;
40807;SDS011;26523;52.504;13.498;2023-01-09T01:22:14;13.18;;;5.47;;
40807;SDS011;26523;52.504;13.498;2023-01-09T01:24:40;13.57;;;5.55;;
40807;SDS011;26523;52.504;13.498;2023-01-09T01:27:06;14.68;;;5.32;;
40807;SDS011;26523;52.504;13.498;2023-01-09T01:29:31;14.32;;;5.15;;
40807;SDS011;26523;52.504;13.498;2023-01-09T01:31:57;16.92;;;6.30;;
40807;SDS011;26523;52.504;13.498;2023-01-09T01:34:23;19.42;;;7.43;;
40807;SDS011;26523;52.504;13.498;2023-01-09T01:36:49;13.73;;;5.55;;
40807;SDS011;26523;52.504;13.498;2023-01-09T01:39:15;12.63;;;5.15;;
40807;SDS011;26523;52.504;13.498;2023-01-09T01:41:41;13.63;;;5.40;;
40807;SDS011;26523;52.504;13.498;2023-01-09T01:44:54;12.95;;;5.80;;
40807;SDS011;26523;52.504;13.498;2023-01-09T01:47:11;14.95;;;5.90;;
40807;SDS011;26523;52.504;13.498;2023-01-09T01:49:37;13.65;;;5.63;;
40807;SDS011;26523;52.504;13.498;2023-01-09T01:52:03;13.65;;;5.57;;
40807;SDS011;26523;52.504;13.498;2023-01-09T01:54:29;13.82;;;5.32;;
40807;SDS011;26523;52.504;13.498;2023-01-09T01:56:57;13.95;;;5.80;;
40807;SDS011;26523;52.504;13.498;2023-01-09T01:59:28;14.63;;;5.53;;
40807;SDS011;26523;52.504;13.498;2023-01-09T02:02:05;9.88;;;5.03;;
40807;SDS011;26523;52.504;13.498;2023-01-09T02:04:32;13.85;;;5.72;;
40807;SDS011;26523;52.504;13.498;2023-01-09T02:07:02;11.35;;;4.57;;
40807;SDS011;26523;52.504;13.498;2023-01-09T02:09:31;17.58;;;6.65;;
40807;SDS011;26523;52.504;13.498;2023-01-09T02:11:57;15.82;;;6.68;;
40807;SDS011;26523;52.504;13.498;2023-01-09T02:14:25;11.60;;;5.10;;
40807;SDS011;26523;52.504;13.498;2023-01-09T02:31:43;12.80;;;5.65;;
40807;SDS011;26523;52.504;13.498;2023-01-09T02:36:38;14.13;;;6.07;;
40807;SDS011;26523;52.504;13.498;2023-01-09T02:39:22;10.80;;;5.53;;
40807;SDS011;26523;52.504;13.498;2023-01-09T02:41:57;10.20;;;5.13;;
40807;SDS011;26523;52.504;13.498;2023-01-09T02:44:31;13.73;;;6.10;;
40807;SDS011;26523;52.504;13.498;2023-01-09T02:49:33;14.70;;;6.72;;
40807;SDS011;26523;52.504;13.498;2023-01-09T02:54:43;18.88;;;6.57;;
40807;SDS011;26523;52.504;13.498;2023-01-09T02:59:52;14.07;;;5.25;;
40807;SDS011;26523;52.504;13.498;2023-01-09T03:02:24;11.32;;;5.55;;
40807;SDS011;26523;52.504;13.498;2023-01-09T03:05:07;13.55;;;6.32;;
40807;SDS011;26523;52.504;13.498;2023-01-09T03:12:44;14.45;;;5.57;;
40807;SDS011;26523;52.504;13.498;2023-01-09T03:15:14;13.55;;;5.43;;
40807;SDS011;26523;52.504;13.498;2023-01-09T03:17:44;14.80;;;6.32;;
40807;SDS011;26523;52.504;13.498;2023-01-09T03:20:13;15.35;;;6.07;;
40807;SDS011;26523;52.504;13.498;2023-01-09T03:22:46;19.25;;;6.47;;
40807;SDS011;26523;52.504;13.498;2023-01-09T03:25:25;15.55;;;6.05;;
40807;SDS011;26523;52.504;13.498;2023-01-09T03:27:56;14.38;;;5.57;;
40807;SDS011;26523;52.504;13.498;2023-01-09T03:30:24;17.00;;;6.88;;
40807;SDS011;26523;52.504;13.498;2023-01-09T03:32:51;14.55;;;6.53;;
40807;SDS011;26523;52.504;13.498;2023-01-09T03:35:17;16.10;;;7.07;;
40807;SDS011;26523;52.504;13.498;2023-01-09T03:37:43;15.10;;;6.45;;
40807;SDS011;26523;52.504;13.498;2023-01-09T03:40:08;13.40;;;6.55;;
40807;SDS011;26523;52.504;13.498;2023-01-09T03:42:35;14.82;;;6.90;;
40807;SDS011;26523;52.504;13.498;2023-01-09T03:45:00;15.68;;;6.93;;
40807;SDS011;26523;52.504;13.498;2023-01-09T03:47:26;16.48;;;7.50;;
40807;SDS011;26523;52.504;13.498;2023-01-09T03:49:52;13.40;;;6.78;;
40807;SDS011;26523;52.504;13.498;2023-01-09T03:52:17;16.15;;;6.68;;
40807;SDS011;26523;52.504;13.498;2023-01-09T03:54:43;13.23;;;6.88;;
40807;SDS011;26523;52.504;13.498;2023-01-09T03:57:08;13.60;;;6.32;;
40807;SDS011;26523;52.504;13.498;2023-01-09T03:59:34;17.70;;;8.48;;
40807;SDS011;26523;52.504;13.498;2023-01-09T04:02:00;12.32;;;6.97;;
40807;SDS011;26523;52.504;13.498;2023-01-09T04:04:25;14.13;;;6.00;;
40807;SDS011;26523;52.504;13.498;2023-01-09T04:06:51;16.17;;;6.20;;
40807;SDS011;26523;52.504;13.498;2023-01-09T04:09:17;16.30;;;6.82;;
40807;SDS011;26523;52.504;13.498;2023-01-09T04:11:42;16.33;;;6.40;;
40807;SDS011;26523;52.504;13.498;2023-01-09T04:14:08;13.98;;;7.07;;
40807;SDS011;26523;52.504;13.498;2023-01-09T04:16:33;15.57;;;7.07;;
40807;SDS011;26523;52.504;13.498;2023-01-09T04:18:59;17.38;;;7.30;;
40807;SDS011;26523;52.504;13.498;2023-01-09T04:21:25;15.32;;;5.93;;
40807;SDS011;26523;52.504;13.498;2023-01-09T04:23:51;13.85;;;6.88;;
40807;SDS011;26523;52.504;13.498;2023-01-09T04:26:16;13.85;;;5.70;;
40807;SDS011;26523;52.504;13.498;2023-01-09T04:28:42;13.70;;;6.93;;
40807;SDS011;26523;52.504;13.498;2023-01-09T04:31:08;16.08;;;5.97;;
40807;SDS011;26523;52.504;13.498;2023-01-09T04:33:33;12.68;;;6.07;;
40807;SDS011;26523;52.504;13.498;2023-01-09T04:36:00;12.63;;;6.30;;
40807;SDS011;26523;52.504;13.498;2023-01-09T04:38:26;18.35;;;7.18;;
40807;SDS011;26523;52.504;13.498;2023-01-09T04:40:52;20.60;;;7.13;;
40807;SDS011;26523;52.504;13.498;2023-01-09T04:43:17;13.40;;;6.05;;
40807;SDS011;26523;52.504;13.498;2023-01-09T04:45:43;13.38;;;6.20;;
40807;SDS011;26523;52.504;13.498;2023-01-09T04:48:09;13.70;;;6.43;;
40807;SDS011;26523;52.504;13.498;2023-01-09T04:50:35;17.15;;;6.00;;
40807;SDS011;26523;52.504;13.498;2023-01-09T04:53:01;12.75;;;6.22;;
40807;SDS011;26523;52.504;13.498;2023-01-09T04:55:26;15.52;;;6.40;;
40807;SDS011;26523;52.504;13.498;2023-01-09T04:57:52;16.20;;;6.63;;
40807;SDS011;26523;52.504;13.498;2023-01-09T05:00:18;15.05;;;7.30;;
40807;SDS011;26523;52.504;13.498;2023-01-09T05:02:43;17.20;;;6.40;;
40807;SDS011;26523;52.504;13.498;2023-01-09T05:05:09;18.48;;;7.30;;
40807;SDS011;26523;52.504;13.498;2023-01-09T05:07:36;12.82;;;6.20;;
40807;SDS011;26523;52.504;13.498;2023-01-09T05:10:02;10.63;;;5.38;;
40807;SDS011;26523;52.504;13.498;2023-01-09T05:12:29;21.55;;;6.45;;
40807;SDS011;26523;52.504;13.498;2023-01-09T05:14:55;11.35;;;6.22;;
40807;SDS011;26523;52.504;13.498;2023-01-09T05:17:22;12.80;;;5.97;;
40807;SDS011;26523;52.504;13.498;2023-01-09T05:19:48;12.30;;;5.53;;
40807;SDS011;26523;52.504;13.498;2023-01-09T05:22:13;12.80;;;5.88;;
40807;SDS011;26523;52.504;13.498;2023-01-09T05:24:39;15.50;;;6.00;;
40807;SDS011;26523;52.504;13.498;2023-01-09T05:27:05;9.48;;;5.45;;
40807;SDS011;26523;52.504;13.498;2023-01-09T05:29:31;12.93;;;5.97;;
40807;SDS011;26523;52.504;13.498;2023-01-09T05:31:57;14.90;;;6.25;;
40807;SDS011;26523;52.504;13.498;2023-01-09T05:34:23;14.82;;;6.45;;
40807;SDS011;26523;52.504;13.498;2023-01-09T05:36:49;15.57;;;6.70;;
40807;SDS011;26523;52.504;13.498;2023-01-09T05:39:15;16.88;;;6.55;;
40807;SDS011;26523;52.504;13.498;2023-01-09T05:41:40;12.73;;;6.05;;
40807;SDS011;26523;52.504;13.498;2023-01-09T05:44:06;19.38;;;7.47;;
40807;SDS011;26523;52.504;13.498;2023-01-09T05:46:32;17.38;;;7.70;;
40807;SDS011;26523;52.504;13.498;2023-01-09T05:48:57;15.55;;;6.45;;
40807;SDS011;26523;52.504;13.498;2023-01-09T05:51:23;10.40;;;5.72;;
40807;SDS011;26523;52.504;13.498;2023-01-09T05:53:49;13.18;;;5.97;;
40807;SDS011;26523;52.504;13.498;2023-01-09T05:56:14;15.23;;;6.05;;
40807;SDS011;26523;52.504;13.498;2023-01-09T05:58:40;17.00;;;7.57;;
40807;SDS011;26523;52.504;13.498;2023-01-09T06:01:06;16.05;;;6.85;;
40807;SDS011;26523;52.504;13.498;2023-01-09T06:03:32;15.85;;;6.15;;
40807;SDS011;26523;52.504;13.498;2023-01-09T06:05:58;14.43;;;7.05;;
40807;SDS011;26523;52.504;13.498;2023-01-09T06:08:23;20.75;;;7.47;;
40807;SDS011;26523;52.504;13.498;2023-01-09T06:10:49;18.95;;;7.15;;
40807;SDS011;26523;52.504;13.498;2023-01-09T06:13:14;12.82;;;6.68;;
40807;SDS011;26523;52.504;13.498;2023-01-09T06:15:40;18.95;;;6.90;;
40807;SDS011;26523;52.504;13.498;2023-01-09T06:18:06;15.90;;;7.43;;
40807;SDS011;26523;52.504;13.498;2023-01-09T06:20:32;17.38;;;7.88;;
40807;SDS011;26523;52.504;13.498;2023-01-09T06:22:58;20.33;;;7.82;;
40807;SDS011;26523;52.504;13.498;2023-01-09T06:25:24;18.15;;;7.88;;
40807;SDS011;26523;52.504;13.498;2023-01-09T06:27:50;17.02;;;6.18;;
40807;SDS011;26523;52.504;13.498;2023-01-09T06:30:16;28.08;;;9.40;;
40807;SDS011;26523;52.504;13.498;2023-01-09T06:32:43;22.48;;;7.28;;
40807;SDS011;26523;52.504;13.498;2023-01-09T06:35:08;27.88;;;9.98;;
40807;SDS011;26523;52.504;13.498;2023-01-09T06:37:34;23.17;;;8.25;;
40807;SDS011;26523;52.504;13.498;2023-01-09T06:40:00;21.23;;;7.80;;
40807;SDS011;26523;52.504;13.498;2023-01-09T06:42:26;19.13;;;7.60;;
40807;SDS011;26523;52.504;13.498;2023-01-09T06:44:51;17.63;;;6.63;;
40807;SDS011;26523;52.504;13.498;2023-01-09T06:47:17;18.98;;;7.45;;
40807;SDS011;26523;52.504;13.498;2023-01-09T06:49:43;25.52;;;8.73;;
40807;SDS011;26523;52.504;13.498;2023-01-09T06:52:09;14.43;;;6.93;;
40807;SDS011;26523;52.504;13.498;2023-01-09T06:54:34;16.30;;;6.63;;
40807;SDS011;26523;52.504;13.498;2023-01-09T06:57:00;16.48;;;6.93;;
40807;SDS011;26523;52.504;13.498;2023-01-09T06:59:26;21.35;;;7.28;;
40807;SDS011;26523;52.504;13.498;2023-01-09T07:01:51;20.27;;;7.38;;
40807;SDS011;26523;52.504;13.498;2023-01-09T07:04:17;15.50;;;6.97;;
40807;SDS011;26523;52.504;13.498;2023-01-09T07:06:46;17.85;;;8.07;;
40807;SDS011;26523;52.504;13.498;2023-01-09T07:09:13;17.25;;;7.70;;
40807;SDS011;26523;52.504;13.498;2023-01-09T07:11:39;17.77;;;7.25;;
40807;SDS011;26523;52.504;13.498;2023-01-09T07:14:04;20.38;;;7.82;;
40807;SDS011;26523;52.504;13.498;2023-01-09T07:16:30;18.52;;;7.35;;
40807;SDS011;26523;52.504;13.498;2023-01-09T07:18:57;22.38;;;8.70;;
40807;SDS011;26523;52.504;13.498;2023-01-09T07:21:23;18.90;;;8.07;;
40807;SDS011;26523;52.504;13.498;2023-01-09T07:23:49;15.52;;;6.30;;
40807;SDS011;26523;52.504;13.498;2023-01-09T07:26:15;20.98;;;7.40;;
40807;SDS011;26523;52.504;13.498;2023-01-09T07:28:40;36.00;;;8.55;;
40807;SDS011;26523;52.504;13.498;2023-01-09T07:31:06;17.27;;;6.57;;
40807;SDS011;26523;52.504;13.498;2023-01-09T07:33:32;21.63;;;7.45;;
40807;SDS011;26523;52.504;13.498;2023-01-09T07:35:58;18.45;;;7.03;;
40807;SDS011;26523;52.504;13.498;2023-01-09T07:38:24;18.63;;;6.65;;
40807;SDS011;26523;52.504;13.498;2023-01-09T07:40:50;26.60;;;7.57;;
40807;SDS011;26523;52.504;13.498;2023-01-09T07:43:16;17.90;;;7.35;;
40807;SDS011;26523;52.504;13.498;2023-01-09T07:45:41;24.40;;;8.15;;
40807;SDS011;26523;52.504;13.498;2023-01-09T07:48:07;18.90;;;8.02;;
40807;SDS011;26523;52.504;13.498;2023-01-09T07:50:34;19.55;;;7.88;;
40807;SDS011;26523;52.504;13.498;2023-01-09T07:53:00;20.63;;;7.55;;
40807;SDS011;26523;52.504;13.498;2023-01-09T07:55:25;16.25;;;6.68;;
40807;SDS011;26523;52.504;13.498;2023-01-09T07:57:51;14.55;;;7.15;;
40807;SDS011;26523;52.504;13.498;2023-01-09T08:00:17;16.98;;;7.13;;
40807;SDS011;26523;52.504;13.498;2023-01-09T08:02:45;22.08;;;6.43;;
40807;SDS011;26523;52.504;13.498;2023-01-09T08:05:15;17.30;;;7.78;;
40807;SDS011;26523;52.504;13.498;2023-01-09T08:07:40;14.35;;;7.55;;
40807;SDS011;26523;52.504;13.498;2023-01-09T08:10:07;21.23;;;7.85;;
40807;SDS011;26523;52.504;13.498;2023-01-09T08:12:34;15.77;;;6.25;;
40807;SDS011;26523;52.504;13.498;2023-01-09T08:15:00;17.35;;;7.78;;
40807;SDS011;26523;52.504;13.498;2023-01-09T08:17:26;20.20;;;7.55;;
40807;SDS011;26523;52.504;13.498;2023-01-09T08:19:51;20.13;;;6.35;;
40807;SDS011;26523;52.504;13.498;2023-01-09T08:22:17;16.52;;;6.65;;
40807;SDS011;26523;52.504;13.498;2023-01-09T08:24:43;18.98;;;7.35;;
40807;SDS011;26523;52.504;13.498;2023-01-09T08:27:08;17.35;;;6.95;;
40807;SDS011;26523;52.504;13.498;2023-01-09T08:29:34;22.25;;;7.70;;
40807;SDS011;26523;52.504;13.498;2023-01-09T08:32:00;15.95;;;7.28;;
40807;SDS011;26523;52.504;13.498;2023-01-09T08:34:25;26.00;;;6.95;;
40807;SDS011;26523;52.504;13.498;2023-01-09T08:36:51;17.35;;;7.40;;
40807;SDS011;26523;52.504;13.498;2023-01-09T08:39:18;14.90;;;7.13;;
40807;SDS011;26523;52.504;13.498;2023-01-09T08:41:43;21.67;;;8.60;;
40807;SDS011;26523;52.504;13.498;2023-01-09T08:44:28;17.70;;;6.78;;
40807;SDS011;26523;52.504;13.498;2023-01-09T08:47:13;16.75;;;6.88;;
40807;SDS011;26523;52.504;13.498;2023-01-09T08:49:42;23.50;;;8.82;;
40807;SDS011;26523;52.504;13.498;2023-01-09T08:52:08;17.75;;;6.97;;
40807;SDS011;26523;52.504;13.498;2023-01-09T08:54:33;17.42;;;7.93;;
40807;SDS011;26523;52.504;13.498;2023-01-09T08:57:02;14.98;;;6.68;;
40807;SDS011;26523;52.504;13.498;2023-01-09T08:59:28;19.90;;;7.90;;
40807;SDS011;26523;52.504;13.498;2023-01-09T09:01:54;17.25;;;7.38;;
40807;SDS011;26523;52.504;13.498;2023-01-09T09:04:20;18.77;;;7.45;;
40807;SDS011;26523;52.504;13.498;2023-01-09T09:06:45;15.88;;;6.72;;
40807;SDS011;26523;52.504;13.498;2023-01-09T09:09:11;20.50;;;7.25;;
40807;SDS011;26523;52.504;13.498;2023-01-09T09:11:37;16.35;;;7.22;;
40807;SDS011;26523;52.504;13.498;2023-01-09T09:14:02;18.42;;;7.57;;
40807;SDS011;26523;52.504;13.498;2023-01-09T09:16:47;32.75;;;9.50;;
40807;SDS011;26523;52.504;13.498;2023-01-09T09:19:13;17.45;;;7.50;;
40807;SDS011;26523;52.504;13.498;2023-01-09T09:21:39;16.58;;;7.20;;
40807;SDS011;26523;52.504;13.498;2023-01-09T09:24:05;12.82;;;6.88;;
40807;SDS011;26523;52.504;13.498;2023-01-09T09:26:30;18.88;;;6.78;;
40807;SDS011;26523;52.504;13.498;2023-01-09T09:28:57;14.57;;;7.00;;
40807;SDS011;26523;52.504;13.498;2023-01-09T09:31:23;17.13;;;7.05;;
40807;SDS011;26523;52.504;13.498;2023-01-09T09:33:48;19.58;;;7.63;;
40807;SDS011;26523;52.504;13.498;2023-01-09T09:36:14;20.52;;;7.32;;
40807;SDS011;26523;52.504;13.498;2023-01-09T09:38:40;19.52;;;7.13;;
40807;SDS011;26523;52.504;13.498;2023-01-09T09:44:05;20.02;;;6.78;;
40807;SDS011;26523;52.504;13.498;2023-01-09T09:47:10;14.57;;;5.93;;
40807;SDS011;26523;52.504;13.498;2023-01-09T09:55:39;16.10;;;6.78;;
40807;SDS011;26523;52.504;13.498;2023-01-09T09:58:09;14.95;;;6.43;;
40807;SDS011;26523;52.504;13.498;2023-01-09T10:01:00;15.80;;;6.03;;
40807;SDS011;26523;52.504;13.498;2023-01-09T10:03:46;30.20;;;7.70;;
40807;SDS011;26523;52.504;13.498;2023-01-09T10:12:00;16.02;;;6.43;;
40807;SDS011;26523;52.504;13.498;2023-01-09T10:14:28;13.57;;;6.03;;
40807;SDS011;26523;52.504;13.498;2023-01-09T10:22:35;16.02;;;5.78;;
40807;SDS011;26523;52.504;13.498;2023-01-09T10:30:44;13.77;;;5.65;;
40807;SDS011;26523;52.504;13.498;2023-01-09T10:36:11;15.75;;;6.40;;
40807;SDS011;26523;52.504;13.498;2023-01-09T10:38:46;11.75;;;5.43;;
40807;SDS011;26523;52.504;13.498;2023-01-09T10:41:28;10.43;;;4.63;;
40807;SDS011;26523;52.504;13.498;2023-01-09T10:44:10;14.52;;;6.07;;
40807;SDS011;26523;52.504;13.498;2023-01-09T10:46:52;12.70;;;5.72;;
40807;SDS011;26523;52.504;13.498;2023-01-09T10:49:19;13.65;;;5.38;;
40807;SDS011;26523;52.504;13.498;2023-01-09T10:51:48;16.90;;;5.68;;
40807;SDS011;26523;52.504;13.498;2023-01-09T10:54:17;11.13;;;4.88;;
40807;SDS011;26523;52.504;13.498;2023-01-09T10:56:48;10.40;;;4.85;;
40807;SDS011;26523;52.504;13.498;2023-01-09T10:59:24;23.85;;;5.70;;
40807;SDS011;26523;52.504;13.498;2023-01-09T11:01:51;10.10;;;4.28;;
40807;SDS011;26523;52.504;13.498;2023-01-09T11:04:31;10.20;;;4.18;;
40807;SDS011;26523;52.504;13.498;2023-01-09T11:07:09;11.45;;;4.45;;
40807;SDS011;26523;52.504;13.498;2023-01-09T11:09:57;10.55;;;3.63;;
40807;SDS011;26523;52.504;13.498;2023-01-09T11:12:30;9.48;;;4.63;;
40807;SDS011;26523;52.504;13.498;2023-01-09T11:17:42;7.22;;;3.42;;
40807;SDS011;26523;52.504;13.498;2023-01-09T11:20:19;9.45;;;4.75;;
40807;SDS011;26523;52.504;13.498;2023-01-09T11:22:51;10.85;;;4.70;;
40807;SDS011;26523;52.504;13.498;2023-01-09T11:25:25;11.02;;;4.05;;
40807;SDS011;26523;52.504;13.498;2023-01-09T11:30:35;20.20;;;4.38;;
40807;SDS011;26523;52.504;13.498;2023-01-09T11:33:17;6.63;;;3.30;;
40807;SDS011;26523;52.504;13.498;2023-01-09T11:35:57;12.13;;;3.40;;
40807;SDS011;26523;52.504;13.498;2023-01-09T11:38:26;6.90;;;3.15;;
40807;SDS011;26523;52.504;13.498;2023-01-09T11:40:57;10.30;;;3.03;;
40807;SDS011;26523;52.504;13.498;2023-01-09T11:43:36;5.97;;;2.83;;
40807;SDS011;26523;52.504;13.498;2023-01-09T11:46:05;7.57;;;2.58;;
40807;SDS011;26523;52.504;13.498;2023-01-09T11:48:33;8.02;;;3.38;;
40807;SDS011;26523;52.504;13.498;2023-01-09T11:51:00;6.70;;;3.10;;
40807;SDS011;26523;52.504;13.498;2023-01-09T11:56:40;8.18;;;3.22;;
40807;SDS011;26523;52.504;13.498;2023-01-09T11:59:07;7.53;;;2.95;;
40807;SDS011;26523;52.504;13.498;2023-01-09T12:10:02;4.63;;;2.60;;
40807;SDS011;26523;52.504;13.498;2023-01-09T12:15:25;4.97;;;2.03;;
40807;SDS011;26523;52.504;13.498;2023-01-09T12:23:49;7.38;;;2.13;;
40807;SDS011;26523;52.504;13.498;2023-01-09T12:26:44;6.90;;;2.40;;
40807;SDS011;26523;52.504;13.498;2023-01-09T12:29:29;3.75;;;1.95;;
40807;SDS011;26523;52.504;13.498;2023-01-09T12:34:42;4.70;;;1.98;;
40807;SDS011;26523;52.504;13.498;2023-01-09T12:58:37;5.60;;;1.98;;
40807;SDS011;26523;52.504;13.498;2023-01-09T13:01:08;3.42;;;1.75;;
40807;SDS011;26523;52.504;13.498;2023-01-09T13:06:32;8.10;;;1.90;;
40807;SDS011;26523;52.504;13.498;2023-01-09T13:11:39;5.32;;;1.60;;
40807;SDS011;26523;52.504;13.498;2023-01-09T13:14:21;3.90;;;1.90;;
40807;SDS011;26523;52.504;13.498;2023-01-09T13:16:54;3.50;;;2.20;;
40807;SDS011;26523;52.504;13.498;2023-01-09T13:19:30;14.18;;;1.83;;
40807;SDS011;26523;52.504;13.498;2023-01-09T13:22:06;4.10;;;1.60;;
40807;SDS011;26523;52.504;13.498;2023-01-09T13:27:02;5.38;;;2.20;;
40807;SDS011;26523;52.504;13.498;2023-01-09T13:29:34;6.88;;;1.77;;
40807;SDS011;26523;52.504;13.498;2023-01-09T13:34:49;3.47;;;1.90;;
40807;SDS011;26523;52.504;13.498;2023-01-09T13:37:21;9.20;;;2.20;;
40807;SDS011;26523;52.504;13.498;2023-01-09T13:39:53;4.28;;;1.83;;
40807;SDS011;26523;52.504;13.498;2023-01-09T13:42:28;5.78;;;1.50;;
40807;SDS011;26523;52.504;13.498;2023-01-09T13:47:46;7.90;;;1.90;;
40807;SDS011;26523;52.504;13.498;2023-01-09T13:50:32;9.18;;;1.92;;
40807;SDS011;26523;52.504;13.498;2023-01-09T13:53:03;8.43;;;1.50;;
40807;SDS011;26523;52.504;13.498;2023-01-09T14:01:38;4.68;;;1.30;;
40807;SDS011;26523;52.504;13.498;2023-01-09T14:06:36;3.85;;;1.48;;
40807;SDS011;26523;52.504;13.498;2023-01-09T14:09:06;3.80;;;1.30;;
40807;SDS011;26523;52.504;13.498;2023-01-09T14:11:34;5.28;;;1.67;;
40807;SDS011;26523;52.504;13.498;2023-01-09T14:14:00;7.90;;;1.77;;
40807;SDS011;26523;52.504;13.498;2023-01-09T14:16:28;4.22;;;1.50;;
40807;SDS011;26523;52.504;13.498;2023-01-09T14:19:02;5.63;;;1.90;;
40807;SDS011;26523;52.504;13.498;2023-01-09T14:21:44;5.60;;;1.50;;
40807;SDS011;26523;52.504;13.498;2023-01-09T14:24:18;2.30;;;1.30;;
40807;SDS011;26523;52.504;13.498;2023-01-09T14:33:25;2.80;;;1.35;;
40807;SDS011;26523;52.504;13.498;2023-01-09T14:46:44;6.45;;;1.80;;
40807;SDS011;26523;52.504;13.498;2023-01-09T14:51:40;3.90;;;1.33;;
40807;SDS011;26523;52.504;13.498;2023-01-09T14:56:58;3.58;;;1.60;;
40807;SDS011;26523;52.504;13.498;2023-01-09T14:59:25;3.35;;;1.40;;
40807;SDS011;26523;52.504;13.498;2023-01-09T15:01:51;5.68;;;1.40;;
40807;SDS011;26523;52.504;13.498;2023-01-09T15:04:32;8.90;;;2.10;;
40807;SDS011;26523;52.504;13.498;2023-01-09T15:07:02;2.97;;;1.75;;
40807;SDS011;26523;52.504;13.498;2023-01-09T15:09:37;8.38;;;1.70;;
40807;SDS011;26523;52.504;13.498;2023-01-09T15:12:09;3.45;;;1.60;;
40807;SDS011;26523;52.504;13.498;2023-01-09T15:14:43;5.53;;;1.40;;
40807;SDS011;26523;52.504;13.498;2023-01-09T15:17:30;4.03;;;1.75;;
40807;SDS011;26523;52.504;13.498;2023-01-09T15:19:58;4.22;;;2.00;;
40807;SDS011;26523;52.504;13.498;2023-01-09T15:24:52;5.15;;;1.50;;
40807;SDS011;26523;52.504;13.498;2023-01-09T15:27:19;5.53;;;1.80;;
40807;SDS011;26523;52.504;13.498;2023-01-09T15:29:48;3.28;;;1.80;;
40807;SDS011;26523;52.504;13.498;2023-01-09T15:32:21;7.75;;;1.75;;
40807;SDS011;26523;52.504;13.498;2023-01-09T15:34:55;5.35;;;1.60;;
40807;SDS011;26523;52.504;13.498;2023-01-09T15:37:28;9.25;;;1.92;;
40807;SDS011;26523;52.504;13.498;2023-01-09T15:39:56;4.18;;;1.83;;
40807;SDS011;26523;52.504;13.498;2023-01-09T15:42:24;4.75;;;2.05;;
40807;SDS011;26523;52.504;13.498;2023-01-09T15:45:13;4.93;;;1.67;;
40807;SDS011;26523;52.504;13.498;2023-01-09T15:47:47;5.13;;;1.70;;
40807;SDS011;26523;52.504;13.498;2023-01-09T15:50:17;6.90;;;2.22;;
40807;SDS011;26523;52.504;13.498;2023-01-09T15:52:48;14.77;;;2.03;;
40807;SDS011;26523;52.504;13.498;2023-01-09T15:55:21;3.95;;;1.58;;
40807;SDS011;26523;52.504;13.498;2023-01-09T15:58:01;5.03;;;1.80;;
40807;SDS011;26523;52.504;13.498;2023-01-09T16:00:32;3.35;;;2.05;;
40807;SDS011;26523;52.504;13.498;2023-01-09T16:03:07;6.13;;;1.98;;
40807;SDS011;26523;52.504;13.498;2023-01-09T16:05:45;3.75;;;1.80;;
40807;SDS011;26523;52.504;13.498;2023-01-09T16:08:21;5.20;;;2.00;;
40807;SDS011;26523;52.504;13.498;2023-01-09T16:10:57;7.10;;;2.13;;
40807;SDS011;26523;52.504;13.498;2023-01-09T16:13:27;2.65;;;1.40;;
40807;SDS011;26523;52.504;13.498;2023-01-09T16:15:55;6.40;;;1.70;;
40807;SDS011;26523;52.504;13.498;2023-01-09T16:18:27;6.50;;;1.95;;
40807;SDS011;26523;52.504;13.498;2023-01-09T16:23:36;8.93;;;3.05;;
40807;SDS011;26523;52.504;13.498;2023-01-09T16:26:12;6.72;;;2.45;;
40807;SDS011;26523;52.504;13.498;2023-01-09T16:28:39;5.20;;;2.05;;
40807;SDS011;26523;52.504;13.498;2023-01-09T16:31:24;4.90;;;2.00;;
40807;SDS011;26523;52.504;13.498;2023-01-09T16:33:56;5.40;;;2.92;;
40807;SDS011;26523;52.504;13.498;2023-01-09T16:36:28;8.25;;;2.55;;
40807;SDS011;26523;52.504;13.498;2023-01-09T16:38:55;4.60;;;1.40;;
40807;SDS011;26523;52.504;13.498;2023-01-09T16:41:21;2.83;;;1.35;;
40807;SDS011;26523;52.504;13.498;2023-01-09T16:44:07;5.45;;;1.20;;
40807;SDS011;26523;52.504;13.498;2023-01-09T16:46:35;5.00;;;1.65;;
40807;SDS011;26523;52.504;13.498;2023-01-09T16:49:17;7.43;;;1.17;;
40807;SDS011;26523;52.504;13.498;2023-01-09T16:51:43;5.75;;;1.42;;
40807;SDS011;26523;52.504;13.498;2023-01-09T16:54:09;3.65;;;1.50;;
40807;SDS011;26523;52.504;13.498;2023-01-09T16:56:35;3.28;;;0.98;;
40807;SDS011;26523;52.504;13.498;2023-01-09T16:59:02;4.80;;;1.17;;
40807;SDS011;26523;52.504;13.498;2023-01-09T17:01:28;4.10;;;1.45;;
40807;SDS011;26523;52.504;13.498;2023-01-09T17:03:54;4.50;;;1.10;;
40807;SDS011;26523;52.504;13.498;2023-01-09T17:06:27;4.28;;;1.13;;
40807;SDS011;26523;52.504;13.498;2023-01-09T17:08:55;1.67;;;0.88;;
40807;SDS011;26523;52.504;13.498;2023-01-09T17:11:22;2.35;;;1.33;;
40807;SDS011;26523;52.504;13.498;2023-01-09T17:13:54;2.15;;;0.93;;
40807;SDS011;26523;52.504;13.498;2023-01-09T17:16:20;4.00;;;1.30;;